Terminal Aerodrome Forecast
Issued by NWS

Home | Current Version | Previous Version | Graphics & Text | Print | Product List | Glossary On
Versions: 1 2 3 4 5 6 7 8 9 10 11 12 13 14 15 16 17 18 19 20 21 22 23 24 25 26 27 28 29 30 31 32
045
FTUS43 KABR 021120
TAFATY
TAF
KATY 021120Z 0212/0312 34007KT P6SM SCT012 OVC028
     FM021300 33004KT P6SM OVC015
     FM030500 25004KT P6SM BKN015
     FM030700 23004KT P6SM BKN025
     FM030800 22005KT P6SM BKN040=

USA.gov is the U.S. government's official web portal to all federal, state and local government web resources and services.